Time;durP1;ratioP1;P1;durP2;ratioP2;P2;SDS_P1;SDS_P2;PMS_P1;PMS_P2;Temp;Humidity;BMP_temperature;BMP_pressure;BME280_temperature;BME280_humidity;BME280_pressure;Samples;Min_cycle;Max_cycle;Signal;HPM_P1;HPM_P2
2021/01/20 00:01:03;;;;;;;3.55;2.58;;;1.80;99.90;;;;;;5096509;28;20048;-74
2021/01/20 00:03:30;;;;;;;4.28;2.40;;;1.80;99.90;;;;;;5088441;28;20082;-74
2021/01/20 00:05:59;;;;;;;3.15;2.58;;;1.80;99.90;;;;;;5089082;28;20127;-74
2021/01/20 00:08:25;;;;;;;4.10;2.90;;;1.80;99.90;;;;;;5093078;28;20043;-75
2021/01/20 00:10:52;;;;;;;2.88;2.63;;;1.70;99.90;;;;;;5090606;28;20052;-74
2021/01/20 00:13:19;;;;;;;3.95;2.50;;;1.70;99.90;;;;;;5088405;28;20766;-75
2021/01/20 00:15:47;;;;;;;3.25;2.47;;;1.70;99.90;;;;;;5086945;28;20047;-75
2021/01/20 00:18:18;;;;;;;4.45;2.70;;;1.70;99.90;;;;;;5086272;28;20687;-74
2021/01/20 00:20:47;;;;;;;4.65;2.92;;;1.70;99.90;;;;;;5097479;28;20048;-74
2021/01/20 00:23:14;;;;;;;4.55;3.13;;;1.70;99.90;;;;;;5094818;28;20520;-73
2021/01/20 00:25:40;;;;;;;5.20;3.30;;;1.70;99.90;;;;;;5101792;28;20151;-74
2021/01/20 00:28:07;;;;;;;4.18;3.03;;;1.60;99.90;;;;;;5086261;28;20131;-74
2021/01/20 00:30:35;;;;;;;3.72;3.00;;;1.50;99.90;;;;;;5086148;28;20183;-74
2021/01/20 00:33:02;;;;;;;4.97;3.42;;;1.30;99.90;;;;;;5092275;28;20036;-75
2021/01/20 00:35:32;;;;;;;4.53;2.95;;;1.10;99.90;;;;;;5078926;28;20039;-75
2021/01/20 00:38:01;;;;;;;4.78;3.40;;;1.00;99.90;;;;;;5089070;28;20109;-75
2021/01/20 00:40:27;;;;;;;5.45;3.42;;;0.90;99.90;;;;;;5086925;28;20047;-75
2021/01/20 00:42:53;;;;;;;7.18;3.70;;;0.80;99.90;;;;;;5097310;28;20040;-75
2021/01/20 00:45:22;;;;;;;6.20;3.72;;;0.80;99.90;;;;;;5090304;28;20131;-75
2021/01/20 00:47:49;;;;;;;5.68;3.65;;;0.70;99.90;;;;;;5084598;28;20072;-75
2021/01/20 00:50:16;;;;;;;6.15;3.83;;;0.70;99.90;;;;;;5089788;28;20102;-76
2021/01/20 00:52:45;;;;;;;4.53;3.30;;;0.70;99.90;;;;;;5090566;28;20078;-75
2021/01/20 00:55:14;;;;;;;4.60;3.10;;;0.90;99.90;;;;;;5094420;28;20162;-75
2021/01/20 00:57:41;;;;;;;4.63;3.13;;;1.10;99.90;;;;;;5080057;28;20129;-75
2021/01/20 01:00:10;;;;;;;3.58;2.90;;;1.30;99.90;;;;;;5085644;28;20124;-75
2021/01/20 01:02:36;;;;;;;4.40;2.90;;;1.50;99.90;;;;;;5086987;28;20043;-75
2021/01/20 01:05:06;;;;;;;2.78;2.45;;;1.60;99.90;;;;;;5086410;28;20040;-75
2021/01/20 01:07:36;;;;;;;3.10;2.53;;;1.50;99.90;;;;;;5086886;28;20071;-74
2021/01/20 01:10:04;;;;;;;3.40;2.30;;;1.50;99.90;;;;;;5091193;28;20075;-75
2021/01/20 01:12:30;;;;;;;3.80;2.65;;;1.60;99.90;;;;;;5086377;28;20083;-76
2021/01/20 01:14:58;;;;;;;4.45;2.97;;;1.60;99.90;;;;;;5096377;28;20079;-76
2021/01/20 01:17:25;;;;;;;5.75;2.47;;;1.60;99.90;;;;;;5100862;28;20046;-76
2021/01/20 01:19:53;;;;;;;3.78;2.50;;;1.50;99.90;;;;;;5082806;28;20115;-76
2021/01/20 01:22:23;;;;;;;2.58;2.22;;;1.60;99.90;;;;;;5087166;28;20102;-76
2021/01/20 01:24:50;;;;;;;3.42;2.60;;;1.60;99.90;;;;;;5092653;28;20052;-76
2021/01/20 01:27:21;;;;;;;3.88;2.58;;;1.60;99.90;;;;;;5086442;28;20051;-76
2021/01/20 01:29:47;;;;;;;4.25;2.60;;;1.60;99.90;;;;;;5083628;28;20101;-75
2021/01/20 01:32:16;;;;;;;3.78;2.65;;;1.50;99.90;;;;;;5083271;28;20131;-76
2021/01/20 01:34:44;;;;;;;3.72;2.90;;;1.40;99.90;;;;;;5096124;28;20051;-76
2021/01/20 01:37:11;;;;;;;3.35;2.97;;;1.30;99.90;;;;;;5091597;28;20120;-76
2021/01/20 01:39:40;;;;;;;4.47;2.88;;;1.10;99.90;;;;;;5091639;28;20071;-76
2021/01/20 01:42:06;;;;;;;4.15;2.80;;;1.00;99.90;;;;;;5093467;28;20120;-76
2021/01/20 01:44:35;;;;;;;4.63;3.17;;;0.90;99.90;;;;;;5088073;28;20501;-76
2021/01/20 01:47:01;;;;;;;4.47;3.10;;;0.70;99.90;;;;;;5097219;27;20443;-75
2021/01/20 01:49:30;;;;;;;6.03;2.80;;;0.60;99.90;;;;;;5097746;28;20048;-77
2021/01/20 01:52:00;;;;;;;4.35;3.03;;;0.50;99.90;;;;;;5089063;28;20138;-76
2021/01/20 01:54:28;;;;;;;4.82;2.63;;;0.40;99.90;;;;;;5097245;28;20143;-77
2021/01/20 01:56:54;;;;;;;5.03;2.90;;;0.40;99.90;;;;;;5087334;28;20101;-76
2021/01/20 01:59:22;;;;;;;4.45;3.15;;;0.30;99.90;;;;;;5083986;28;20150;-76
2021/01/20 02:01:49;;;;;;;3.75;3.08;;;0.30;99.90;;;;;;5086459;28;20455;-75
2021/01/20 02:04:16;;;;;;;4.82;3.17;;;0.50;99.90;;;;;;5089397;28;20048;-76
2021/01/20 02:06:45;;;;;;;5.00;3.22;;;0.70;99.90;;;;;;5094559;28;20131;-75
2021/01/20 02:09:14;;;;;;;2.70;2.33;;;0.80;99.90;;;;;;5089142;28;20132;-75
2021/01/20 02:12:08;;;;;;;2.90;2.70;;;0.80;99.90;;;;;;5103001;28;20555;-76
2021/01/20 02:14:54;;;;;;;3.42;2.65;;;0.90;99.90;;;;;;5089760;28;20105;-76
2021/01/20 02:17:22;;;;;;;3.40;2.72;;;1.00;99.90;;;;;;5100749;28;20078;-76
2021/01/20 02:19:54;;;;;;;3.25;2.80;;;1.00;99.90;;;;;;5087785;28;20130;-76
2021/01/20 02:22:39;;;;;;;3.25;2.85;;;0.90;99.90;;;;;;5098598;27;20420;-76
2021/01/20 02:25:32;;;;;;;4.95;2.92;;;0.80;99.90;;;;;;5097419;28;20051;-76
2021/01/20 02:28:14;;;;;;;5.88;3.08;;;0.70;99.90;;;;;;5106729;28;20043;-76
2021/01/20 02:30:45;;;;;;;4.67;3.60;;;0.60;99.90;;;;;;5090632;28;20160;-76
2021/01/20 02:33:17;;;;;;;4.70;2.60;;;0.50;99.90;;;;;;5090616;28;20354;-75
2021/01/20 02:35:44;;;;;;;;;;;0.50;99.90;;;;;;5097145;28;20044;-76
2021/01/20 02:38:12;;;;;;;4.45;3.13;;;0.70;99.90;;;;;;5093175;28;19930;-75
2021/01/20 02:40:38;;;;;;;3.92;2.70;;;1.00;99.90;;;;;;5100825;28;20057;-76
2021/01/20 02:43:05;;;;;;;3.88;3.50;;;1.10;99.90;;;;;;5081625;28;20185;-76
2021/01/20 02:45:32;;;;;;;5.28;3.60;;;1.20;99.90;;;;;;5095831;27;20131;-76
2021/01/20 02:47:58;;;;;;;5.07;3.50;;;1.40;99.90;;;;;;5092003;28;20135;-76
2021/01/20 02:50:27;;;;;;;4.93;3.75;;;1.50;99.90;;;;;;5091271;28;20044;-76
2021/01/20 02:53:09;;;;;;;5.03;3.60;;;1.60;99.90;;;;;;5092152;28;20040;-75
2021/01/20 02:55:41;;;;;;;6.65;3.75;;;1.60;99.90;;;;;;5104924;27;20671;-75
2021/01/20 02:58:14;;;;;;;4.10;3.15;;;1.50;99.90;;;;;;5102981;28;20044;-75
2021/01/20 03:00:41;;;;;;;10.38;3.67;;;1.50;99.90;;;;;;5095498;28;20078;-75
2021/01/20 03:03:09;;;;;;;6.15;3.90;;;1.50;99.90;;;;;;5100094;28;20075;-75
2021/01/20 03:05:39;;;;;;;6.10;3.70;;;1.50;99.90;;;;;;5093573;28;20082;-75
2021/01/20 03:08:05;;;;;;;5.50;3.90;;;1.50;99.90;;;;;;5092493;28;20063;-75
2021/01/20 03:10:32;;;;;;;4.85;3.47;;;1.60;99.90;;;;;;5093252;28;20535;-76
2021/01/20 03:12:58;;;;;;;4.53;3.85;;;1.60;99.90;;;;;;5087738;28;20040;-75
2021/01/20 03:15:35;;;;;;;4.57;3.13;;;1.70;99.90;;;;;;5093010;28;20119;-76
2021/01/20 03:18:01;;;;;;;4.40;3.20;;;1.80;99.90;;;;;;5090319;28;20090;-75
2021/01/20 03:20:28;;;;;;;5.22;3.70;;;1.90;99.90;;;;;;5074271;28;20112;-76
2021/01/20 03:22:56;;;;;;;4.60;3.40;;;1.90;99.90;;;;;;5088210;28;20048;-75
2021/01/20 03:25:25;;;;;;;4.18;3.42;;;1.80;99.90;;;;;;5095344;28;20044;-76
2021/01/20 03:27:51;;;;;;;5.32;3.55;;;1.80;99.90;;;;;;5091701;28;20072;-75
2021/01/20 03:30:20;;;;;;;4.45;3.13;;;1.80;99.90;;;;;;5097621;28;20130;-76
2021/01/20 03:32:46;;;;;;;3.47;3.05;;;1.80;99.90;;;;;;5097928;28;20043;-75
2021/01/20 03:35:13;;;;;;;4.28;2.90;;;1.80;99.90;;;;;;5093312;27;20048;-75
2021/01/20 03:37:42;;;;;;;4.15;2.92;;;1.70;99.90;;;;;;5090464;28;20297;-75
2021/01/20 03:40:09;;;;;;;3.55;2.90;;;1.70;99.90;;;;;;5097245;28;20465;-76
2021/01/20 03:42:38;;;;;;;3.30;3.00;;;1.70;99.90;;;;;;5094011;28;20048;-76
2021/01/20 03:45:06;;;;;;;2.90;2.60;;;1.80;99.90;;;;;;5092497;28;20047;-76
2021/01/20 03:47:33;;;;;;;4.18;2.80;;;1.80;99.90;;;;;;5094709;28;20039;-76
2021/01/20 03:49:59;;;;;;;3.42;2.75;;;1.70;99.90;;;;;;5091907;28;20086;-76
2021/01/20 03:52:26;;;;;;;3.78;2.83;;;1.60;99.90;;;;;;5086411;28;20158;-76
2021/01/20 03:54:53;;;;;;;3.70;2.95;;;1.60;99.90;;;;;;5100572;27;20139;-76
2021/01/20 03:57:24;;;;;;;3.65;2.90;;;1.50;99.90;;;;;;5090460;28;20048;-76
2021/01/20 03:59:50;;;;;;;3.95;2.75;;;1.40;99.90;;;;;;5099164;28;20048;-76
2021/01/20 04:02:19;;;;;;;3.15;2.58;;;1.30;99.90;;;;;;5097339;28;20139;-76
2021/01/20 04:04:47;;;;;;;3.67;2.88;;;1.30;99.90;;;;;;5103902;28;20132;-76
2021/01/20 04:07:13;;;;;;;6.35;2.53;;;1.20;99.90;;;;;;5103481;28;20047;-76
2021/01/20 04:09:39;;;;;;;4.15;2.60;;;1.10;99.90;;;;;;5094970;28;20067;-76
2021/01/20 04:12:07;;;;;;;3.47;2.85;;;1.00;99.90;;;;;;5082841;28;20120;-76
2021/01/20 04:14:33;;;;;;;4.05;2.80;;;1.10;99.90;;;;;;5092801;28;20381;-76
2021/01/20 04:17:02;;;;;;;5.15;3.00;;;1.10;99.90;;;;;;5096896;28;20662;-76
2021/01/20 04:19:30;;;;;;;3.58;3.00;;;1.00;99.90;;;;;;5097153;28;20527;-76
2021/01/20 04:21:57;;;;;;;6.05;3.10;;;1.10;99.90;;;;;;5089278;28;20223;-75
2021/01/20 04:24:23;;;;;;;3.10;2.63;;;1.20;99.90;;;;;;5087365;28;20207;-76
2021/01/20 04:26:53;;;;;;;5.05;2.90;;;1.40;99.90;;;;;;5089820;28;20051;-75
2021/01/20 04:29:19;;;;;;;3.95;2.50;;;1.50;99.90;;;;;;5087137;28;20044;-76
2021/01/20 04:31:45;;;;;;;4.32;2.78;;;1.70;99.90;;;;;;5099381;28;20126;-75
2021/01/20 04:34:14;;;;;;;3.60;2.70;;;1.80;99.90;;;;;;5087365;28;20052;-79
2021/01/20 04:36:41;;;;;;;3.13;2.70;;;1.90;99.90;;;;;;5099178;28;20092;-80
2021/01/20 04:39:11;;;;;;;5.95;3.08;;;1.90;99.90;;;;;;5090174;28;20455;-79
2021/01/20 04:41:38;;;;;;;5.43;3.10;;;1.80;99.90;;;;;;5087025;28;20950;-79
2021/01/20 04:44:06;;;;;;;2.90;2.60;;;1.70;99.90;;;;;;5096141;28;20116;-79
2021/01/20 04:46:35;;;;;;;3.05;2.60;;;1.60;99.90;;;;;;5084236;28;20127;-79
2021/01/20 04:49:02;;;;;;;4.15;2.67;;;1.40;99.90;;;;;;5101602;28;20075;-79
2021/01/20 04:51:31;;;;;;;3.35;2.70;;;1.40;99.90;;;;;;5091026;28;20044;-80
2021/01/20 04:53:58;;;;;;;4.68;3.15;;;1.40;99.90;;;;;;5089227;28;20036;-79
2021/01/20 04:56:30;;;;;;;4.47;3.17;;;1.50;99.90;;;;;;5088517;27;20111;-77
2021/01/20 04:58:56;;;;;;;4.43;3.55;;;1.60;99.90;;;;;;5090448;28;20079;-76
2021/01/20 05:01:26;;;;;;;6.20;2.90;;;1.50;99.90;;;;;;5083587;28;20040;-76
2021/01/20 05:03:54;;;;;;;5.75;3.35;;;1.50;99.90;;;;;;5096075;28;20050;-76
2021/01/20 05:06:21;;;;;;;4.28;3.60;;;1.50;99.90;;;;;;5098762;28;20132;-77
2021/01/20 05:08:47;;;;;;;4.13;3.30;;;1.40;99.90;;;;;;5094601;28;20075;-75
2021/01/20 05:11:16;;;;;;;5.70;3.40;;;1.40;99.90;;;;;;5098935;28;20133;-75
2021/01/20 05:13:44;;;;;;;4.65;3.33;;;1.40;99.90;;;;;;5100034;27;20133;-75
2021/01/20 05:16:29;;;;;;;4.03;3.20;;;1.40;99.90;;;;;;5067936;28;20562;-75
2021/01/20 05:18:58;;;;;;;4.13;3.45;;;1.40;99.90;;;;;;5090675;28;20470;-75
2021/01/20 05:21:25;;;;;;;7.68;3.67;;;1.40;99.90;;;;;;5100996;28;20075;-76
2021/01/20 05:23:51;;;;;;;4.90;3.53;;;1.40;99.90;;;;;;5100399;28;20177;-75
2021/01/20 05:26:23;;;;;;;5.55;4.45;;;1.40;99.90;;;;;;5084390;28;20052;-76
2021/01/20 05:28:52;;;;;;;7.80;4.38;;;1.40;99.90;;;;;;5085728;28;20055;-74
2021/01/20 05:31:27;;;;;;;5.53;3.83;;;1.40;99.90;;;;;;5103452;28;20048;-76
2021/01/20 05:33:56;;;;;;;6.22;4.07;;;1.50;99.90;;;;;;5093724;28;20138;-75
2021/01/20 05:36:25;;;;;;;5.88;3.60;;;1.50;99.90;;;;;;5090369;28;20102;-75
2021/01/20 05:38:51;;;;;;;6.43;3.70;;;1.50;99.90;;;;;;5083652;28;20145;-74
2021/01/20 05:41:31;;;;;;;4.90;3.30;;;1.60;99.90;;;;;;5091525;28;20443;-75
2021/01/20 05:44:17;;;;;;;6.10;3.67;;;1.80;99.90;;;;;;5103531;28;20071;-74
2021/01/20 05:46:44;;;;;;;5.03;3.70;;;1.90;99.90;;;;;;5093888;28;20130;-74
2021/01/20 05:49:27;;;;;;;6.07;3.22;;;1.90;99.90;;;;;;5103704;28;20131;-75
2021/01/20 05:51:55;;;;;;;4.57;3.28;;;2.00;99.90;;;;;;5086473;28;20044;-76
2021/01/20 05:54:34;;;;;;;4.13;3.30;;;2.10;99.90;;;;;;5105269;28;20071;-75
2021/01/20 05:57:17;;;;;;;4.53;3.60;;;2.20;99.90;;;;;;5123354;27;20047;-74
2021/01/20 05:59:46;;;;;;;7.00;3.58;;;2.40;99.90;;;;;;5123768;28;20096;-74
2021/01/20 06:02:14;;;;;;;6.28;3.92;;;2.40;99.90;;;;;;5104350;28;20135;-75
2021/01/20 06:04:42;;;;;;;4.70;3.13;;;2.50;99.90;;;;;;5097017;28;20052;-73
2021/01/20 06:07:11;;;;;;;5.93;3.08;;;2.50;99.90;;;;;;5102064;28;20386;-73
2021/01/20 06:09:42;;;;;;;5.13;3.13;;;2.40;99.90;;;;;;5093079;28;20545;-74
2021/01/20 06:12:10;;;;;;;10.68;4.20;;;2.50;99.90;;;;;;5103610;28;20077;-74
2021/01/20 06:14:38;;;;;;;5.63;4.20;;;2.40;99.90;;;;;;5102070;28;20036;-76
2021/01/20 06:17:22;;;;;;;9.77;5.15;;;2.30;99.90;;;;;;5104773;28;20401;-73
2021/01/20 06:19:52;;;;;;;6.10;3.45;;;2.20;99.90;;;;;;5103334;28;20589;-73
2021/01/20 06:22:19;;;;;;;4.97;3.70;;;2.10;99.90;;;;;;5098285;28;20144;-74
2021/01/20 06:24:49;;;;;;;3.83;2.78;;;2.00;99.90;;;;;;5103883;28;20047;-74
2021/01/20 06:27:23;;;;;;;6.07;3.50;;;2.00;99.90;;;;;;5102984;28;20074;-74
2021/01/20 06:30:14;;;;;;;3.58;3.05;;;1.90;99.90;;;;;;5103009;28;20090;-74
2021/01/20 06:32:45;;;;;;;6.35;3.22;;;1.80;99.90;;;;;;5100751;28;20188;-74
2021/01/20 06:35:12;;;;;;;4.53;3.28;;;1.70;99.90;;;;;;5094770;28;20479;-74
2021/01/20 06:37:44;;;;;;;5.90;3.63;;;1.70;99.90;;;;;;5103954;28;20079;-75
2021/01/20 06:40:20;;;;;;;9.60;3.53;;;1.70;99.90;;;;;;5102776;28;20048;-74
2021/01/20 06:42:48;;;;;;;4.40;3.10;;;1.70;99.90;;;;;;5103166;28;20118;-74
2021/01/20 06:45:21;;;;;;;5.15;3.22;;;1.80;99.90;;;;;;5101414;28;20048;-74
2021/01/20 06:47:59;;;;;;;3.30;2.22;;;2.00;99.90;;;;;;5105033;28;20059;-74
2021/01/20 06:50:53;;;;;;;5.95;3.53;;;2.40;99.90;;;;;;5101833;28;20067;-75
2021/01/20 06:53:20;;;;;;;4.68;3.30;;;2.70;99.90;;;;;;5093786;28;20131;-75
2021/01/20 06:55:46;;;;;;;3.35;2.28;;;3.00;99.90;;;;;;5082723;28;20048;-75
2021/01/20 06:58:30;;;;;;;4.20;2.97;;;3.20;99.90;;;;;;5102937;27;20521;-74
2021/01/20 07:01:00;;;;;;;5.07;3.40;;;3.40;99.90;;;;;;5091624;28;20454;-74
2021/01/20 07:03:54;;;;;;;6.55;3.45;;;3.50;99.90;;;;;;5106226;28;20063;-74
2021/01/20 07:06:36;;;;;;;4.78;3.15;;;3.50;99.90;;;;;;5107092;28;20048;-75
2021/01/20 07:09:02;;;;;;;5.60;3.17;;;3.50;99.90;;;;;;5107011;28;20040;-74
2021/01/20 07:11:56;;;;;;;5.68;3.10;;;3.50;99.90;;;;;;5105837;28;20515;-74
2021/01/20 07:14:43;;;;;;;5.50;3.35;;;3.40;99.90;;;;;;5110984;27;20150;-75
2021/01/20 07:17:16;;;;;;;4.68;3.05;;;3.50;99.90;;;;;;5085309;28;20040;-74
2021/01/20 07:19:47;;;;;;;6.95;3.13;;;3.50;99.90;;;;;;5101715;28;20214;-74
2021/01/20 07:22:15;;;;;;;6.07;3.28;;;3.50;99.90;;;;;;5101827;28;20101;-74
2021/01/20 07:24:42;;;;;;;6.45;3.50;;;3.40;99.90;;;;;;5107323;28;20573;-75
2021/01/20 07:27:11;;;;;;;4.47;2.72;;;3.50;99.90;;;;;;5106336;28;20100;-74
2021/01/20 07:29:40;;;;;;;6.15;3.00;;;3.50;99.90;;;;;;5107584;28;20617;-75
2021/01/20 07:32:07;;;;;;;3.70;2.85;;;3.50;99.90;;;;;;5107788;28;20047;-75
2021/01/20 07:34:44;;;;;;;3.30;2.45;;;3.60;99.90;;;;;;5106621;28;20135;-75
2021/01/20 07:37:19;;;;;;;7.20;3.28;;;3.60;99.90;;;;;;5104291;28;20067;-74
2021/01/20 07:39:45;;;;;;;3.55;2.78;;;3.60;99.90;;;;;;5102652;28;20040;-75
2021/01/20 07:42:12;;;;;;;5.50;2.85;;;3.60;99.90;;;;;;5105627;28;20055;-74
2021/01/20 07:44:51;;;;;;;3.63;2.83;;;3.60;99.90;;;;;;5102854;28;20043;-74
2021/01/20 07:47:18;;;;;;;5.60;3.30;;;3.50;99.90;;;;;;5088405;28;20147;-75
2021/01/20 07:49:56;;;;;;;4.70;3.38;;;3.50;99.90;;;;;;5106020;28;20799;-74
2021/01/20 07:52:22;;;;;;;5.70;3.75;;;3.50;99.90;;;;;;5105335;28;20355;-75
2021/01/20 07:54:50;;;;;;;4.55;3.10;;;3.50;99.90;;;;;;5112301;27;20043;-74
2021/01/20 07:57:19;;;;;;;5.82;3.50;;;3.40;99.90;;;;;;5116193;27;20050;-75
2021/01/20 08:00:08;;;;;;;6.68;3.67;;;3.40;99.90;;;;;;5104987;28;20152;-74
2021/01/20 08:02:46;;;;;;;5.82;4.07;;;3.40;99.90;;;;;;5105681;28;20100;-74
2021/01/20 08:05:13;;;;;;;7.20;4.05;;;3.40;99.90;;;;;;5099726;28;20092;-74
2021/01/20 08:07:40;;;;;;;7.03;4.35;;;3.40;99.90;;;;;;5105653;28;20051;-74
2021/01/20 08:10:20;;;;;;;6.38;4.20;;;3.40;99.90;;;;;;5101223;28;20043;-74
2021/01/20 08:12:50;;;;;;;6.40;3.65;;;3.30;99.90;;;;;;5105211;28;20128;-74
2021/01/20 08:15:18;;;;;;;6.10;3.85;;;3.30;99.90;;;;;;5106672;28;20504;-75
2021/01/20 08:17:50;;;;;;;7.97;3.78;;;3.40;99.90;;;;;;5107062;28;20074;-75
2021/01/20 08:20:16;;;;;;;4.35;3.72;;;3.40;99.90;;;;;;5105468;28;20043;-74
2021/01/20 08:22:49;;;;;;;7.78;4.35;;;3.40;99.90;;;;;;5103594;28;20044;-74
2021/01/20 08:25:22;;;;;;;7.68;4.60;;;3.40;99.90;;;;;;5104379;28;20135;-74
2021/01/20 08:27:49;;;;;;;6.53;4.63;;;3.40;99.90;;;;;;5106513;28;20047;-75
2021/01/20 08:30:29;;;;;;;9.05;4.50;;;3.40;99.90;;;;;;5099864;28;20104;-75
2021/01/20 08:32:59;;;;;;;7.05;4.63;;;3.40;99.90;;;;;;5100580;28;20040;-74
2021/01/20 08:35:33;;;;;;;7.68;4.57;;;3.40;99.90;;;;;;5105707;28;20047;-75
2021/01/20 08:38:00;;;;;;;7.75;4.40;;;3.40;99.90;;;;;;5106632;28;20452;-74
2021/01/20 08:40:34;;;;;;;6.60;4.72;;;3.40;99.90;;;;;;5087780;28;20047;-74
2021/01/20 08:43:00;;;;;;;8.55;5.38;;;3.40;99.90;;;;;;5104408;28;20124;-75
2021/01/20 08:45:43;;;;;;;8.68;4.75;;;3.40;99.90;;;;;;5089422;28;20360;-75
2021/01/20 08:48:09;;;;;;;8.07;4.57;;;3.40;99.90;;;;;;5105865;28;20043;-74
2021/01/20 08:50:44;;;;;;;6.07;4.43;;;3.40;99.90;;;;;;5104935;28;20052;-75
2021/01/20 08:53:14;;;;;;;7.88;4.45;;;3.50;99.90;;;;;;5104922;28;20067;-75
2021/01/20 08:55:52;;;;;;;6.03;4.20;;;3.50;99.90;;;;;;5116454;27;20145;-75
2021/01/20 08:58:46;;;;;;;6.07;4.38;;;3.60;99.90;;;;;;5092104;28;20043;-75
2021/01/20 09:01:16;;;;;;;6.75;5.00;;;3.60;99.90;;;;;;5104931;28;20055;-74
2021/01/20 09:03:58;;;;;;;9.30;4.63;;;3.60;99.90;;;;;;5106116;28;20126;-75
2021/01/20 09:06:28;;;;;;;7.90;5.63;;;3.70;99.90;;;;;;5103775;28;20054;-76
2021/01/20 09:08:56;;;;;;;7.10;4.95;;;3.70;99.90;;;;;;5105863;28;20285;-74
2021/01/20 09:11:23;;;;;;;8.00;5.35;;;3.70;99.90;;;;;;5103901;28;20565;-75
2021/01/20 09:13:55;;;;;;;9.25;5.50;;;3.70;99.90;;;;;;5104151;28;20063;-75
2021/01/20 09:16:29;;;;;;;11.02;6.25;;;3.60;99.90;;;;;;5103727;28;20162;-75
2021/01/20 09:19:00;;;;;;;11.98;7.07;;;3.60;99.90;;;;;;5104230;28;20066;-74
2021/01/20 09:21:33;;;;;;;12.02;6.40;;;3.60;99.90;;;;;;5103072;28;20048;-75
2021/01/20 09:23:59;;;;;;;11.75;6.75;;;3.70;99.90;;;;;;5104971;28;20047;-74
2021/01/20 09:26:26;;;;;;;12.95;7.20;;;3.70;99.90;;;;;;5104149;28;20066;-75
2021/01/20 09:28:55;;;;;;;12.70;7.40;;;3.70;99.90;;;;;;5101493;28;20497;-75
2021/01/20 09:31:22;;;;;;;13.52;7.00;;;3.80;99.90;;;;;;5104887;28;20047;-74
2021/01/20 09:33:53;;;;;;;20.38;9.77;;;3.80;99.90;;;;;;5105429;28;20050;-74
2021/01/20 09:36:20;;;;;;;14.93;7.20;;;3.80;99.90;;;;;;5103075;28;20127;-74
2021/01/20 09:38:46;;;;;;;14.65;6.93;;;3.90;99.90;;;;;;5104028;28;20043;-75
2021/01/20 09:41:14;;;;;;;14.38;7.40;;;3.90;99.90;;;;;;5102697;28;20047;-76
2021/01/20 09:43:40;;;;;;;11.30;6.88;;;4.00;99.90;;;;;;5097982;28;20044;-75
2021/01/20 09:46:07;;;;;;;11.60;7.05;;;4.10;99.90;;;;;;5101836;28;20043;-76
2021/01/20 09:48:33;;;;;;;11.07;5.93;;;4.20;99.90;;;;;;5091122;28;20040;-76
2021/01/20 09:51:02;;;;;;;11.52;6.68;;;4.30;99.90;;;;;;5104035;28;20043;-76
2021/01/20 09:53:32;;;;;;;11.20;6.53;;;4.30;99.90;;;;;;5103773;28;20039;-75
2021/01/20 09:55:58;;;;;;;13.10;7.22;;;4.30;99.90;;;;;;5112169;28;20070;-76
2021/01/20 09:58:25;;;;;;;9.38;6.03;;;4.40;99.90;;;;;;5097725;28;20063;-75
2021/01/20 10:00:53;;;;;;;10.73;5.90;;;4.30;99.90;;;;;;5084134;28;20120;-75
2021/01/20 10:03:20;;;;;;;12.23;6.40;;;4.30;99.90;;;;;;5104165;28;20451;-75
2021/01/20 10:05:48;;;;;;;5.85;4.55;;;4.50;99.90;;;;;;5105230;28;20058;-75
2021/01/20 10:08:14;;;;;;;6.97;4.95;;;4.60;99.90;;;;;;5104942;28;20486;-75
2021/01/20 10:10:44;;;;;;;8.05;5.10;;;4.80;99.90;;;;;;5104886;28;20078;-76
2021/01/20 10:13:10;;;;;;;7.97;4.90;;;4.90;99.90;;;;;;5104272;28;20055;-75
2021/01/20 10:15:40;;;;;;;7.30;5.00;;;4.90;99.90;;;;;;5104821;28;20127;-75
2021/01/20 10:18:07;;;;;;;7.00;4.50;;;5.00;99.90;;;;;;5106332;28;20039;-75
2021/01/20 10:20:36;;;;;;;8.80;4.82;;;4.90;99.90;;;;;;5103312;28;20502;-75
2021/01/20 10:23:11;;;;;;;;;;;5.00;99.90;;;;;;5105109;28;20040;-76
2021/01/20 10:25:38;;;;;;;8.65;4.90;;;5.00;99.90;;;;;;5102635;28;20440;-75
2021/01/20 10:28:06;;;;;;;6.60;4.13;;;5.10;99.90;;;;;;5102149;28;20145;-75
2021/01/20 10:30:36;;;;;;;5.70;4.53;;;5.20;99.90;;;;;;5098815;28;20068;-76
2021/01/20 10:33:02;;;;;;;6.55;4.20;;;5.30;99.90;;;;;;5100836;28;20568;-76
2021/01/20 10:35:29;;;;;;;6.63;4.57;;;5.50;99.90;;;;;;5107200;27;20039;-76
2021/01/20 10:37:58;;;;;;;7.32;4.93;;;5.50;99.90;;;;;;5108582;28;20083;-76
2021/01/20 10:40:25;;;;;;;15.30;8.40;;;5.50;99.90;;;;;;5108221;28;20051;-76
2021/01/20 10:42:52;;;;;;;7.60;5.55;;;5.40;99.90;;;;;;5108367;28;20143;-76
2021/01/20 10:45:18;;;;;;;7.72;5.47;;;5.20;99.90;;;;;;5106982;28;20051;-76
2021/01/20 10:47:45;;;;;;;9.98;6.18;;;5.30;99.90;;;;;;5108965;28;20092;-76
2021/01/20 10:50:15;;;;;;;7.90;5.43;;;5.40;99.90;;;;;;5105894;28;20059;-76
2021/01/20 10:52:41;;;;;;;10.00;6.15;;;5.50;99.90;;;;;;5108784;28;20131;-76
2021/01/20 10:55:08;;;;;;;9.90;5.78;;;5.60;99.90;;;;;;5106759;28;20048;-76
2021/01/20 10:57:34;;;;;;;9.32;6.10;;;5.70;99.90;;;;;;5119038;27;20043;-76
2021/01/20 11:00:01;;;;;;;9.18;5.90;;;6.00;99.90;;;;;;5105439;27;20039;-76
2021/01/20 11:02:35;;;;;;;7.88;5.10;;;6.10;99.90;;;;;;5102884;28;20445;-76
2021/01/20 11:05:06;;;;;;;7.65;5.05;;;6.20;99.30;;;;;;5087367;28;20055;-74
2021/01/20 11:07:35;;;;;;;8.02;5.35;;;6.40;99.90;;;;;;5108353;28;20104;-75
2021/01/20 11:10:05;;;;;;;7.70;4.82;;;6.50;97.70;;;;;;5106749;28;20089;-75
2021/01/20 11:12:34;;;;;;;6.10;4.30;;;6.30;99.50;;;;;;5104934;28;20048;-75
2021/01/20 11:15:02;;;;;;;9.30;4.75;;;6.10;99.70;;;;;;5105693;28;20051;-75
2021/01/20 11:17:29;;;;;;;6.40;4.53;;;5.90;99.90;;;;;;5111722;27;20047;-76
2021/01/20 11:19:56;;;;;;;7.50;4.45;;;5.60;99.90;;;;;;5107063;27;20051;-75
2021/01/20 11:22:25;;;;;;;7.18;4.80;;;5.50;99.90;;;;;;5111649;27;20612;-76
2021/01/20 11:25:00;;;;;;;14.23;4.50;;;5.50;99.90;;;;;;5108327;28;20056;-75
2021/01/20 11:27:30;;;;;;;6.55;4.38;;;5.50;99.90;;;;;;5103772;28;20077;-75
2021/01/20 11:29:56;;;;;;;6.88;5.28;;;5.60;99.90;;;;;;5107096;28;20044;-75
2021/01/20 11:32:25;;;;;;;8.38;5.65;;;5.70;99.90;;;;;;5096626;28;20040;-76
2021/01/20 11:34:52;;;;;;;9.85;6.28;;;5.70;99.90;;;;;;5100024;28;20055;-77
2021/01/20 11:37:18;;;;;;;11.70;5.80;;;5.60;99.90;;;;;;5103218;28;20446;-76
2021/01/20 11:39:45;;;;;;;9.60;5.50;;;5.50;99.90;;;;;;5102802;28;20048;-76
2021/01/20 11:42:11;;;;;;;11.20;5.60;;;5.70;99.90;;;;;;5105734;28;20097;-76
2021/01/20 11:44:38;;;;;;;12.57;5.57;;;5.80;99.90;;;;;;5095769;28;20671;-76
2021/01/20 11:47:04;;;;;;;11.32;5.78;;;5.90;99.90;;;;;;5100625;28;20036;-76
2021/01/20 11:49:31;;;;;;;11.45;6.60;;;5.90;99.90;;;;;;5103147;28;20048;-78
2021/01/20 11:51:57;;;;;;;14.63;8.70;;;5.90;99.90;;;;;;5106505;28;20046;-75
2021/01/20 11:54:25;;;;;;;12.48;7.97;;;5.90;99.90;;;;;;5096174;27;20044;-75
2021/01/20 11:56:56;;;;;;;10.07;6.93;;;5.90;99.90;;;;;;5096983;27;20089;-75
2021/01/20 11:59:23;;;;;;;12.70;6.18;;;6.00;99.90;;;;;;5094812;28;20090;-76
2021/01/20 12:01:49;;;;;;;10.73;5.40;;;6.20;99.90;;;;;;5096846;28;20078;-75
2021/01/20 12:04:16;;;;;;;9.52;5.75;;;6.10;99.90;;;;;;5094744;28;20040;-75
2021/01/20 12:06:42;;;;;;;12.13;6.93;;;6.10;99.90;;;;;;5095824;28;20051;-76
2021/01/20 12:09:09;;;;;;;11.77;6.32;;;6.10;99.90;;;;;;5105562;28;20435;-76
2021/01/20 12:11:38;;;;;;;11.43;6.45;;;5.90;99.90;;;;;;5106802;27;20077;-76
2021/01/20 12:14:05;;;;;;;9.85;6.90;;;5.90;99.90;;;;;;5108173;28;20465;-76
2021/01/20 12:16:36;;;;;;;9.07;6.05;;;5.90;99.90;;;;;;5093589;28;20047;-76
2021/01/20 12:19:02;;;;;;;7.25;5.10;;;5.90;99.90;;;;;;4736221;28;10000167;-75
2021/01/20 12:21:31;;;;;;;8.45;5.30;;;5.90;99.90;;;;;;5104995;28;20282;-74
2021/01/20 12:24:00;;;;;;;10.07;6.25;;;5.70;99.90;;;;;;5106460;28;20126;-75
2021/01/20 12:26:27;;;;;;;8.13;6.05;;;5.70;99.90;;;;;;5103076;28;20044;-75
2021/01/20 12:28:54;;;;;;;9.95;5.85;;;5.70;99.90;;;;;;5098478;28;20044;-75
2021/01/20 12:31:20;;;;;;;10.13;6.15;;;5.70;99.90;;;;;;5099383;28;20068;-76
2021/01/20 12:33:47;;;;;;;10.50;5.65;;;5.60;99.90;;;;;;5104491;28;20147;-75
2021/01/20 12:36:22;;;;;;;9.63;6.60;;;5.60;99.90;;;;;;5102266;28;20048;-76
2021/01/20 12:38:49;;;;;;;15.48;6.43;;;5.70;99.90;;;;;;5105371;28;20054;-75
2021/01/20 12:41:16;;;;;;;10.90;5.53;;;5.60;99.90;;;;;;5103345;28;20069;-76
2021/01/20 12:43:42;;;;;;;8.57;5.85;;;5.60;99.90;;;;;;5102606;28;20205;-75
2021/01/20 12:46:09;;;;;;;9.50;5.32;;;5.50;99.90;;;;;;5101878;28;20044;-75
2021/01/20 12:48:38;;;;;;;12.68;7.07;;;5.60;99.90;;;;;;5090548;28;20047;-75
2021/01/20 12:51:05;;;;;;;10.73;6.78;;;5.50;99.90;;;;;;5088602;28;20058;-75
2021/01/20 12:53:31;;;;;;;9.18;6.15;;;5.70;99.90;;;;;;5100320;27;20047;-75
2021/01/20 12:55:58;;;;;;;10.57;5.43;;;5.80;99.90;;;;;;5097969;28;20093;-75
2021/01/20 12:58:24;;;;;;;11.75;6.13;;;5.80;99.90;;;;;;5103158;27;20058;-75
2021/01/20 13:00:53;;;;;;;10.95;6.00;;;6.00;99.90;;;;;;5099402;28;20052;-75
2021/01/20 13:03:20;;;;;;;9.00;5.63;;;6.10;99.90;;;;;;5102423;28;20039;-73
2021/01/20 13:05:47;;;;;;;9.55;5.78;;;6.30;99.90;;;;;;5098707;27;20063;-76
2021/01/20 13:08:13;;;;;;;8.98;5.65;;;6.50;99.90;;;;;;5099939;28;20059;-76